createdAt,value
2023-02-09T00:00:14.447Z,75.42
2023-02-09T00:00:48.260Z,75.19
2023-02-09T00:01:22.950Z,74.91
2023-02-09T00:01:54.772Z,74.66
2023-02-09T00:02:29.229Z,75.09
2023-02-09T00:03:00.958Z,75.25
2023-02-09T00:03:33.404Z,74.93
2023-02-09T00:04:05.142Z,74.87
2023-02-09T00:04:36.898Z,74.83
2023-02-09T00:05:09.569Z,75.12
2023-02-09T00:05:41.096Z,75.29
2023-02-09T00:06:17.962Z,75.66
2023-02-09T00:06:49.504Z,75.62
2023-02-09T00:07:21.219Z,75.66
2023-02-09T00:07:52.731Z,75.60
2023-02-09T00:08:24.407Z,75.58
2023-02-09T00:08:56.940Z,75.49
2023-02-09T00:09:28.716Z,75.67
2023-02-09T00:10:00.333Z,75.60
2023-02-09T00:10:31.921Z,75.81
2023-02-09T00:11:20.277Z,75.67
2023-02-09T00:12:10.422Z,75.95
2023-02-09T00:13:01.017Z,75.76
2023-02-09T00:13:32.715Z,75.87
2023-02-09T00:14:04.395Z,75.97
2023-02-09T00:14:35.965Z,75.99
2023-02-09T00:15:07.916Z,76.01
2023-02-09T00:15:47.403Z,76.03
2023-02-09T00:16:18.987Z,75.53
2023-02-09T00:16:51.491Z,75.94
2023-02-09T00:17:23.146Z,75.56
2023-02-09T00:17:55.068Z,75.68
2023-02-09T00:18:26.685Z,75.80
2023-02-09T00:19:05.828Z,75.79
2023-02-09T00:19:37.507Z,75.86
2023-02-09T00:20:12.602Z,76.19
2023-02-09T00:20:44.523Z,75.64
2023-02-09T00:21:16.358Z,75.87
2023-02-09T00:21:54.605Z,75.68
2023-02-09T00:22:26.199Z,75.64
2023-02-09T00:22:58.177Z,75.98
2023-02-09T00:23:31.254Z,76.05
2023-02-09T00:24:02.921Z,76.25
2023-02-09T00:24:34.445Z,76.41
2023-02-09T00:25:06.469Z,76.69
2023-02-09T00:25:39.693Z,76.21
2023-02-09T00:26:12.010Z,76.47
2023-02-09T00:26:47.252Z,76.36
2023-02-09T00:27:19.713Z,76.26
2023-02-09T00:27:51.303Z,76.24
2023-02-09T00:28:22.936Z,76.19
2023-02-09T00:28:56.592Z,76.42
2023-02-09T00:29:28.383Z,76.47
2023-02-09T00:29:59.914Z,76.68
2023-02-09T00:30:31.638Z,77.01
2023-02-09T00:31:11.252Z,76.87
2023-02-09T00:31:44.985Z,76.68
2023-02-09T00:32:17.434Z,76.25
2023-02-09T00:32:49.584Z,76.48
2023-02-09T00:33:21.356Z,76.35
2023-02-09T00:33:52.930Z,76.40
2023-02-09T00:34:24.538Z,76.27
2023-02-09T00:34:56.083Z,76.96
2023-02-09T00:35:27.713Z,76.46
2023-02-09T00:35:59.351Z,76.60
2023-02-09T00:36:30.922Z,76.30
2023-02-09T00:37:02.486Z,76.36
2023-02-09T00:37:35.100Z,76.24
2023-02-09T00:38:06.810Z,76.32
2023-02-09T00:38:38.714Z,76.84
2023-02-09T00:39:10.268Z,77.26
2023-02-09T00:39:41.815Z,77.81
2023-02-09T00:40:13.495Z,77.40
2023-02-09T00:40:45.363Z,77.82
2023-02-09T00:41:17.647Z,77.27
2023-02-09T00:42:08.201Z,77.59
2023-02-09T00:42:40.854Z,77.52
2023-02-09T00:43:12.525Z,77.66
2023-02-09T00:43:44.339Z,77.71
2023-02-09T00:44:16.030Z,78.15
2023-02-09T00:44:47.557Z,77.94
2023-02-09T00:45:19.687Z,78.18
2023-02-09T00:45:51.349Z,78.30
2023-02-09T00:46:22.910Z,78.20
2023-02-09T00:46:54.695Z,78.23
2023-02-09T00:47:26.277Z,78.12
2023-02-09T00:47:58.222Z,78.05
2023-02-09T00:48:29.847Z,77.99
2023-02-09T00:49:01.728Z,77.92
2023-02-09T00:49:33.853Z,77.89
2023-02-09T00:50:06.791Z,77.90
2023-02-09T00:50:38.400Z,77.89
2023-02-09T00:51:10.052Z,77.87
2023-02-09T00:51:42.537Z,78.04
2023-02-09T00:52:14.167Z,77.76
2023-02-09T00:52:45.798Z,78.14
2023-02-09T00:53:18.278Z,78.44
2023-02-09T00:53:49.974Z,78.41
2023-02-09T00:54:21.862Z,77.85
2023-02-09T00:54:53.541Z,77.91
2023-02-09T00:55:25.190Z,77.78
2023-02-09T00:55:56.790Z,78.58
2023-02-09T00:56:28.331Z,78.77
2023-02-09T00:57:05.207Z,78.94
2023-02-09T00:57:38.688Z,78.97
2023-02-09T00:58:10.257Z,78.99
2023-02-09T00:58:41.960Z,79.18
2023-02-09T00:59:16.015Z,78.89
2023-02-09T00:59:47.594Z,78.80
2023-02-09T01:00:20.493Z,79.34
2023-02-09T01:00:52.077Z,78.91
2023-02-09T01:01:23.859Z,79.35
2023-02-09T01:01:55.524Z,78.71
2023-02-09T01:02:27.152Z,78.33
2023-02-09T01:02:58.780Z,78.66
2023-02-09T01:03:30.847Z,78.55
2023-02-09T01:04:02.426Z,78.57
2023-02-09T01:04:34.314Z,78.88
2023-02-09T01:05:06.568Z,79.20
2023-02-09T01:05:40.062Z,78.97
2023-02-09T01:06:11.719Z,79.16
2023-02-09T01:06:43.441Z,79.42
2023-02-09T01:07:15.036Z,79.29
2023-02-09T01:07:46.594Z,79.80
2023-02-09T01:08:18.990Z,79.46
2023-02-09T01:08:51.299Z,79.13
2023-02-09T01:09:22.924Z,79.42
2023-02-09T01:09:54.597Z,79.38
2023-02-09T01:10:26.223Z,79.14
2023-02-09T01:10:57.841Z,79.53
2023-02-09T01:11:30.359Z,79.58
2023-02-09T01:12:02.002Z,79.34
2023-02-09T01:12:34.018Z,79.40
2023-02-09T01:13:06.084Z,79.51
2023-02-09T01:13:38.106Z,79.19
2023-02-09T01:14:10.391Z,79.47
2023-02-09T01:14:42.399Z,79.73
2023-02-09T01:15:15.262Z,79.74
2023-02-09T01:15:49.245Z,79.95
2023-02-09T01:16:20.867Z,79.67
2023-02-09T01:16:52.684Z,79.58
2023-02-09T01:17:24.651Z,79.57
2023-02-09T01:17:56.197Z,79.69
2023-02-09T01:18:27.812Z,79.43
2023-02-09T01:19:01.439Z,79.80
2023-02-09T01:19:34.450Z,79.74
2023-02-09T01:20:08.472Z,79.73
2023-02-09T01:20:43.069Z,80.02
2023-02-09T01:21:19.584Z,80.05
2023-02-09T01:21:51.230Z,80.52
2023-02-09T01:22:22.873Z,80.59
2023-02-09T01:22:54.433Z,80.72
2023-02-09T01:23:26.074Z,80.95
2023-02-09T01:24:00.093Z,81.42
2023-02-09T01:24:31.825Z,81.23
2023-02-09T01:25:04.724Z,81.36
2023-02-09T01:25:36.271Z,81.96
2023-02-09T01:26:09.625Z,81.45
2023-02-09T01:26:41.504Z,81.83
2023-02-09T01:27:13.058Z,81.94
2023-02-09T01:27:44.671Z,81.97
2023-02-09T01:28:16.352Z,82.10
2023-02-09T01:28:50.914Z,81.91
2023-02-09T01:29:22.701Z,82.25
2023-02-09T01:29:54.234Z,82.32
2023-02-09T01:30:26.070Z,82.68
2023-02-09T01:30:59.889Z,82.90
2023-02-09T01:31:34.854Z,82.90
2023-02-09T01:32:07.042Z,82.87
2023-02-09T01:32:38.702Z,82.42
2023-02-09T01:33:10.270Z,82.83
2023-02-09T01:33:41.853Z,83.18
2023-02-09T01:34:15.314Z,82.80
2023-02-09T01:34:51.019Z,83.16
2023-02-09T01:35:22.769Z,82.99
2023-02-09T01:36:03.767Z,82.53
2023-02-09T01:36:35.213Z,82.11
2023-02-09T01:37:06.929Z,81.87
2023-02-09T01:37:38.570Z,81.58
2023-02-09T01:38:10.226Z,81.80
2023-02-09T01:38:41.841Z,81.53
2023-02-09T01:39:14.606Z,81.26
2023-02-09T01:39:46.545Z,81.54
2023-02-09T01:40:18.193Z,81.61
2023-02-09T01:40:50.220Z,81.60
2023-02-09T01:41:22.403Z,81.67
2023-02-09T01:41:54.122Z,81.72
2023-02-09T01:42:25.779Z,81.72
2023-02-09T01:42:57.374Z,82.14
2023-02-09T01:43:48.379Z,82.31
2023-02-09T01:44:20.336Z,82.58
2023-02-09T01:45:07.114Z,83.04
2023-02-09T01:45:45.810Z,83.14
2023-02-09T01:46:17.609Z,83.06
2023-02-09T01:46:49.286Z,83.65
2023-02-09T01:47:20.908Z,83.42
2023-02-09T01:48:00.228Z,83.30
2023-02-09T01:48:31.849Z,83.13
2023-02-09T01:49:03.866Z,83.04
2023-02-09T01:49:35.455Z,82.81
2023-02-09T01:50:07.536Z,82.79
2023-02-09T01:50:41.710Z,82.58
2023-02-09T01:51:13.811Z,82.62
2023-02-09T01:52:07.124Z,83.00
2023-02-09T01:52:40.010Z,82.90
2023-02-09T01:53:11.942Z,82.99
2023-02-09T01:53:44.604Z,82.81
2023-02-09T01:54:21.304Z,83.64
2023-02-09T01:55:02.867Z,83.79
2023-02-09T01:55:37.489Z,82.90
2023-02-09T01:56:13.108Z,83.23
2023-02-09T01:56:47.734Z,83.38
2023-02-09T01:57:25.202Z,83.53
2023-02-09T01:58:07.441Z,83.40
2023-02-09T01:58:40.157Z,82.96
2023-02-09T01:59:12.393Z,83.11
2023-02-09T01:59:46.962Z,83.25
2023-02-09T02:00:19.952Z,82.24
2023-02-09T02:00:51.641Z,82.29
2023-02-09T02:01:24.835Z,81.86
2023-02-09T02:01:56.444Z,81.70
2023-02-09T02:02:29.506Z,80.93
2023-02-09T02:03:05.016Z,81.09
2023-02-09T02:03:36.619Z,80.92
2023-02-09T02:04:08.809Z,81.09
2023-02-09T02:04:42.551Z,81.19
2023-02-09T02:05:14.443Z,81.62
2023-02-09T02:05:48.653Z,81.55
2023-02-09T02:06:20.336Z,81.96
2023-02-09T02:06:56.787Z,81.82
2023-02-09T02:07:51.460Z,82.04
2023-02-09T02:08:45.484Z,81.65
2023-02-09T02:09:17.843Z,81.61
2023-02-09T02:09:49.483Z,81.56
2023-02-09T02:10:21.628Z,80.72
2023-02-09T02:10:54.057Z,81.34
2023-02-09T02:11:28.258Z,81.36
2023-02-09T02:11:59.943Z,81.39
2023-02-09T02:12:32.809Z,81.00
2023-02-09T02:13:04.482Z,81.47
2023-02-09T02:13:36.179Z,81.26
2023-02-09T02:14:07.858Z,81.13
2023-02-09T02:14:39.907Z,81.17
2023-02-09T02:15:12.042Z,80.85
2023-02-09T02:16:15.602Z,81.35
2023-02-09T02:16:59.512Z,81.01
2023-02-09T02:17:47.780Z,80.75
2023-02-09T02:18:29.643Z,80.97
2023-02-09T02:19:19.822Z,80.73
2023-02-09T02:20:04.617Z,80.46
2023-02-09T02:21:09.735Z,80.45
2023-02-09T02:22:05.652Z,81.11
2023-02-09T02:22:58.803Z,81.09
2023-02-09T02:23:57.718Z,81.33
2023-02-09T02:24:37.952Z,81.34
2023-02-09T02:25:40.108Z,81.16
2023-02-09T02:26:48.764Z,81.04
2023-02-09T02:27:35.200Z,80.79
2023-02-09T02:28:24.938Z,80.95
2023-02-09T02:29:18.144Z,80.73
2023-02-09T02:30:17.594Z,80.34
2023-02-09T02:31:12.381Z,80.71
2023-02-09T02:32:08.136Z,80.58
2023-02-09T02:32:55.336Z,80.46
2023-02-09T02:33:44.793Z,80.59
2023-02-09T02:34:21.986Z,80.74
2023-02-09T02:35:08.275Z,80.87
2023-02-09T02:35:45.297Z,80.13
2023-02-09T02:36:35.999Z,80.41
2023-02-09T02:37:16.628Z,80.22
2023-02-09T02:38:02.689Z,80.18
2023-02-09T02:38:49.517Z,80.61
2023-02-09T02:39:50.408Z,80.74
2023-02-09T02:40:41.824Z,81.09
2023-02-09T02:41:15.374Z,80.88
2023-02-09T02:42:34.553Z,81.57
2023-02-09T02:43:36.852Z,81.19
2023-02-09T02:44:14.443Z,81.22
2023-02-09T02:45:06.911Z,81.45
2023-02-09T02:45:48.822Z,81.57
2023-02-09T02:46:33.909Z,81.65
2023-02-09T02:47:07.568Z,81.34
2023-02-09T02:47:42.747Z,81.15
2023-02-09T02:48:48.650Z,81.15
2023-02-09T02:49:29.495Z,81.42
2023-02-09T02:50:06.483Z,81.13
2023-02-09T02:50:44.681Z,81.32
2023-02-09T02:51:19.555Z,81.21
2023-02-09T02:51:54.115Z,81.11
2023-02-09T02:52:25.743Z,80.72
2023-02-09T02:52:59.750Z,80.80
2023-02-09T02:53:34.028Z,81.09
2023-02-09T02:54:17.173Z,81.13
2023-02-09T02:54:55.127Z,81.52
2023-02-09T02:55:28.720Z,81.10
2023-02-09T02:56:06.159Z,81.11
2023-02-09T02:56:43.350Z,81.18
2023-02-09T02:57:27.108Z,81.39
2023-02-09T02:58:01.838Z,81.27
2023-02-09T02:58:34.776Z,81.66
2023-02-09T02:59:08.385Z,81.95
2023-02-09T02:59:46.284Z,81.32
2023-02-09T03:00:26.573Z,81.64
2023-02-09T03:01:01.331Z,80.78
2023-02-09T03:01:38.035Z,80.41
2023-02-09T03:02:20.055Z,80.42
2023-02-09T03:02:56.572Z,80.25
2023-02-09T03:03:35.388Z,80.32
2023-02-09T03:04:07.482Z,79.99
2023-02-09T03:04:40.187Z,80.48
2023-02-09T03:05:11.974Z,80.04
2023-02-09T03:05:44.515Z,79.89
2023-02-09T03:06:17.409Z,80.23
2023-02-09T03:06:49.004Z,80.37
2023-02-09T03:07:20.588Z,79.79
2023-02-09T03:07:52.380Z,79.85
2023-02-09T03:08:24.148Z,80.13
2023-02-09T03:08:57.625Z,80.06
2023-02-09T03:09:29.174Z,79.86
2023-02-09T03:10:03.048Z,80.16
2023-02-09T03:10:40.211Z,80.03
2023-02-09T03:11:12.105Z,80.55
2023-02-09T03:11:45.841Z,80.18
2023-02-09T03:12:33.411Z,80.38
2023-02-09T03:13:15.170Z,80.10
2023-02-09T03:13:59.434Z,79.85
2023-02-09T03:14:40.797Z,79.94
2023-02-09T03:15:51.358Z,80.28
2023-02-09T03:16:40.390Z,80.03
2023-02-09T03:17:27.111Z,79.45
2023-02-09T03:18:23.234Z,80.15
2023-02-09T03:19:23.530Z,80.31
2023-02-09T03:20:03.876Z,80.06
2023-02-09T03:20:41.510Z,80.17
2023-02-09T03:21:30.551Z,79.57
2023-02-09T03:22:08.222Z,79.52
2023-02-09T03:22:45.233Z,79.48
2023-02-09T03:23:27.837Z,79.54
2023-02-09T03:24:01.217Z,80.08
2023-02-09T03:24:37.692Z,80.27
2023-02-09T03:25:13.168Z,80.54
2023-02-09T03:25:48.275Z,80.28
2023-02-09T03:26:28.208Z,80.93
2023-02-09T03:27:06.821Z,81.23
2023-02-09T03:27:45.496Z,80.57
2023-02-09T03:28:22.384Z,80.99
2023-02-09T03:28:56.823Z,81.20
2023-02-09T03:29:29.228Z,81.20
2023-02-09T03:30:04.310Z,81.32
2023-02-09T03:30:36.651Z,81.61
2023-02-09T03:31:08.840Z,81.34
2023-02-09T03:31:40.738Z,81.31
2023-02-09T03:32:12.624Z,81.25
2023-02-09T03:32:46.127Z,81.41
2023-02-09T03:33:23.238Z,81.26
2023-02-09T03:33:57.137Z,80.96
2023-02-09T03:34:28.796Z,80.85
2023-02-09T03:35:00.486Z,80.71
2023-02-09T03:35:37.901Z,80.36
2023-02-09T03:36:16.704Z,80.46
2023-02-09T03:36:53.885Z,80.37
2023-02-09T03:37:25.495Z,80.04
2023-02-09T03:37:57.090Z,80.18
2023-02-09T03:38:28.735Z,80.47
2023-02-09T03:39:01.835Z,80.62
2023-02-09T03:39:33.425Z,80.36
2023-02-09T03:40:05.443Z,80.65
2023-02-09T03:40:37.019Z,80.50
2023-02-09T03:41:08.555Z,80.75
2023-02-09T03:41:40.240Z,80.36
2023-02-09T03:42:11.879Z,80.23
2023-02-09T03:42:43.520Z,80.21
2023-02-09T03:43:15.216Z,80.69
2023-02-09T03:44:05.273Z,81.12
2023-02-09T03:44:36.839Z,80.60
2023-02-09T03:45:08.553Z,80.59
2023-02-09T03:45:40.140Z,80.90
2023-02-09T03:46:11.917Z,80.97
2023-02-09T03:46:43.710Z,81.02
2023-02-09T03:47:15.508Z,80.76
2023-02-09T03:47:47.294Z,80.97
2023-02-09T03:48:18.798Z,80.58
2023-02-09T03:48:50.757Z,80.41
2023-02-09T03:49:23.051Z,80.49
2023-02-09T03:49:54.788Z,80.41
2023-02-09T03:50:26.366Z,80.64
2023-02-09T03:50:57.964Z,80.46
2023-02-09T03:51:29.570Z,80.54
2023-02-09T03:52:02.108Z,80.82
2023-02-09T03:52:33.917Z,80.77
2023-02-09T03:53:08.456Z,80.39
2023-02-09T03:53:40.404Z,80.40
2023-02-09T03:54:12.086Z,79.99
2023-02-09T03:54:43.855Z,80.07
2023-02-09T03:55:15.424Z,80.12
2023-02-09T03:55:47.241Z,80.16
2023-02-09T03:56:18.800Z,79.63
2023-02-09T03:56:50.434Z,79.37
2023-02-09T03:57:21.971Z,79.47
2023-02-09T03:57:53.492Z,79.05
2023-02-09T03:58:25.453Z,79.35
2023-02-09T03:58:57.156Z,79.86
2023-02-09T03:59:28.929Z,79.79
2023-02-09T04:00:01.685Z,79.65
2023-02-09T04:00:43.636Z,79.82
2023-02-09T04:01:15.511Z,79.64
2023-02-09T04:01:47.782Z,79.28
2023-02-09T04:02:19.391Z,79.54
2023-02-09T04:02:51.130Z,79.47
2023-02-09T04:03:22.738Z,79.39
2023-02-09T04:03:54.368Z,79.38
2023-02-09T04:04:26.146Z,79.82
2023-02-09T04:04:57.660Z,80.08
2023-02-09T04:05:29.457Z,80.12
2023-02-09T04:06:01.695Z,80.30
2023-02-09T04:06:34.640Z,80.46
2023-02-09T04:07:08.673Z,80.24
2023-02-09T04:07:40.301Z,80.40
2023-02-09T04:08:11.849Z,80.30
2023-02-09T04:08:43.425Z,80.16
2023-02-09T04:09:15.387Z,80.16
2023-02-09T04:09:46.952Z,79.72
2023-02-09T04:10:19.039Z,80.23
2023-02-09T04:10:50.569Z,80.06
2023-02-09T04:11:23.499Z,79.72
2023-02-09T04:11:55.924Z,79.89
2023-02-09T04:12:27.518Z,79.83
2023-02-09T04:12:59.083Z,79.60
2023-02-09T04:13:30.631Z,79.72
2023-02-09T04:14:02.335Z,79.62
2023-02-09T04:14:33.999Z,79.64
2023-02-09T04:15:05.802Z,79.61
2023-02-09T04:15:38.927Z,79.94
2023-02-09T04:16:10.664Z,79.69
2023-02-09T04:16:42.296Z,79.49
2023-02-09T04:17:13.834Z,79.68
2023-02-09T04:17:45.402Z,80.17
2023-02-09T04:18:17.115Z,80.10
2023-02-09T04:18:48.706Z,79.97
2023-02-09T04:19:20.315Z,79.69
2023-02-09T04:19:51.855Z,80.00
2023-02-09T04:20:23.376Z,79.92
2023-02-09T04:20:54.955Z,80.73
2023-02-09T04:21:26.523Z,80.11
2023-02-09T04:21:58.150Z,80.29
2023-02-09T04:22:32.655Z,80.38
2023-02-09T04:23:04.274Z,80.27
2023-02-09T04:23:35.880Z,80.32
2023-02-09T04:24:08.093Z,80.49
2023-02-09T04:24:39.652Z,80.19
2023-02-09T04:25:11.302Z,80.50
2023-02-09T04:25:42.882Z,80.28
2023-02-09T04:26:14.663Z,80.30
2023-02-09T04:26:47.645Z,80.56
2023-02-09T04:27:19.206Z,80.17
2023-02-09T04:27:50.858Z,80.80
2023-02-09T04:28:22.549Z,80.39
2023-02-09T04:28:54.320Z,80.69
2023-02-09T04:29:26.174Z,80.65
2023-02-09T04:29:57.747Z,80.66
2023-02-09T04:30:29.403Z,80.64
2023-02-09T04:31:01.101Z,80.14
2023-02-09T04:31:32.716Z,80.27
2023-02-09T04:32:04.663Z,80.11
2023-02-09T04:32:36.406Z,80.08
2023-02-09T04:33:08.430Z,79.78
2023-02-09T04:33:39.986Z,79.88
2023-02-09T04:34:11.563Z,80.35
2023-02-09T04:34:43.064Z,80.56
2023-02-09T04:35:14.667Z,80.41
2023-02-09T04:35:46.307Z,80.56
2023-02-09T04:36:17.972Z,80.58
2023-02-09T04:36:49.827Z,80.62
2023-02-09T04:37:21.434Z,80.49
2023-02-09T04:37:53.083Z,80.98
2023-02-09T04:38:24.680Z,81.00
2023-02-09T04:38:56.531Z,81.24
2023-02-09T04:39:28.114Z,81.09
2023-02-09T04:39:59.693Z,81.32
2023-02-09T04:40:31.493Z,81.20
2023-02-09T04:41:03.929Z,81.12
2023-02-09T04:41:35.535Z,81.20
2023-02-09T04:42:07.085Z,81.17
2023-02-09T04:42:38.610Z,81.04
2023-02-09T04:43:10.247Z,80.91
2023-02-09T04:43:41.773Z,80.93
2023-02-09T04:44:13.362Z,81.04
2023-02-09T04:44:44.928Z,80.97
2023-02-09T04:45:16.566Z,81.41
2023-02-09T04:45:48.356Z,81.24
2023-02-09T04:46:20.002Z,80.79
2023-02-09T04:46:51.606Z,80.86
2023-02-09T04:47:23.111Z,80.84
2023-02-09T04:47:54.642Z,80.95
2023-02-09T04:48:27.535Z,81.15
2023-02-09T04:48:59.915Z,81.14
2023-02-09T04:49:31.522Z,80.83
2023-02-09T04:50:03.969Z,80.41
2023-02-09T04:50:35.543Z,80.84
2023-02-09T04:51:07.175Z,80.65
2023-02-09T04:51:38.758Z,80.52
2023-02-09T04:52:10.597Z,80.75
2023-02-09T04:52:42.223Z,80.95
2023-02-09T04:53:14.639Z,81.18
2023-02-09T04:53:46.528Z,81.12
2023-02-09T04:54:18.053Z,81.31
2023-02-09T04:54:49.589Z,81.02
2023-02-09T04:55:21.208Z,80.92
2023-02-09T04:55:53.051Z,81.10
2023-02-09T04:56:24.617Z,81.16
2023-02-09T04:57:16.090Z,80.80
2023-02-09T04:58:06.370Z,80.49
2023-02-09T04:58:56.586Z,80.58
2023-02-09T04:59:39.213Z,80.95
2023-02-09T05:00:11.382Z,80.89
2023-02-09T05:00:43.088Z,80.80
2023-02-09T05:01:21.316Z,80.92
2023-02-09T05:01:53.368Z,80.67
2023-02-09T05:02:24.944Z,80.86
2023-02-09T05:02:56.583Z,80.73
2023-02-09T05:03:28.517Z,80.49
2023-02-09T05:04:00.111Z,80.93
2023-02-09T05:04:31.733Z,80.91
2023-02-09T05:05:03.537Z,81.35
2023-02-09T05:05:39.133Z,81.09
2023-02-09T05:06:10.956Z,80.62
2023-02-09T05:06:42.586Z,80.08
2023-02-09T05:07:14.158Z,80.01
2023-02-09T05:07:45.724Z,79.96
2023-02-09T05:08:17.266Z,80.05
2023-02-09T05:08:48.998Z,80.27
2023-02-09T05:09:20.525Z,80.14
2023-02-09T05:09:52.551Z,80.23
2023-02-09T05:10:24.180Z,80.01
2023-02-09T05:10:55.824Z,80.31
2023-02-09T05:11:27.505Z,80.00
2023-02-09T05:11:59.189Z,79.97
2023-02-09T05:12:30.874Z,79.60
2023-02-09T05:13:02.861Z,79.15
2023-02-09T05:13:34.666Z,79.83
2023-02-09T05:14:06.295Z,79.83
2023-02-09T05:14:37.821Z,79.98
2023-02-09T05:15:10.472Z,79.88
2023-02-09T05:15:42.060Z,79.67
2023-02-09T05:16:16.052Z,79.93
2023-02-09T05:16:47.755Z,80.46
2023-02-09T05:17:21.162Z,80.19
2023-02-09T05:17:52.732Z,80.02
2023-02-09T05:18:24.597Z,79.60
2023-02-09T05:18:56.278Z,79.91
2023-02-09T05:19:27.886Z,79.63
2023-02-09T05:19:59.874Z,79.90
2023-02-09T05:20:31.551Z,80.16
2023-02-09T05:21:03.738Z,80.14
2023-02-09T05:21:35.302Z,79.62
2023-02-09T05:22:06.927Z,79.58
2023-02-09T05:22:38.527Z,79.15
2023-02-09T05:23:10.689Z,78.97
2023-02-09T05:23:42.540Z,79.46
2023-02-09T05:24:14.081Z,79.46
2023-02-09T05:24:45.704Z,79.99
2023-02-09T05:25:17.378Z,79.56
2023-02-09T05:25:48.958Z,79.73
2023-02-09T05:26:20.584Z,79.52
2023-02-09T05:26:52.127Z,79.64
2023-02-09T05:27:23.910Z,79.84
2023-02-09T05:27:55.718Z,80.03
2023-02-09T05:28:27.540Z,80.00
2023-02-09T05:28:59.124Z,79.68
2023-02-09T05:29:30.728Z,79.29
2023-02-09T05:30:02.441Z,79.07
2023-02-09T05:30:34.602Z,79.31
2023-02-09T05:31:06.319Z,79.51
2023-02-09T05:31:38.037Z,79.31
2023-02-09T05:32:09.719Z,79.70
2023-02-09T05:32:41.392Z,79.41
2023-02-09T05:33:13.676Z,79.63
2023-02-09T05:33:45.249Z,79.69
2023-02-09T05:34:16.903Z,79.09
2023-02-09T05:34:48.441Z,79.23
2023-02-09T05:35:20.215Z,78.86
2023-02-09T05:35:52.439Z,78.54
2023-02-09T05:36:23.990Z,78.42
2023-02-09T05:36:55.538Z,78.18
2023-02-09T05:37:27.260Z,78.45
2023-02-09T05:37:58.853Z,78.73
2023-02-09T05:38:30.450Z,78.66
2023-02-09T05:39:02.128Z,78.52
2023-02-09T05:39:34.750Z,78.53
2023-02-09T05:40:07.271Z,78.47
2023-02-09T05:40:39.113Z,78.44
2023-02-09T05:41:32.740Z,78.33
2023-02-09T05:42:16.470Z,78.41
2023-02-09T05:42:47.989Z,77.81
2023-02-09T05:43:19.535Z,77.76
2023-02-09T05:43:52.185Z,78.03
2023-02-09T05:44:24.078Z,78.01
2023-02-09T05:44:55.616Z,77.61
2023-02-09T05:45:27.184Z,77.66
2023-02-09T05:45:58.772Z,77.50
2023-02-09T05:46:30.422Z,77.74
2023-02-09T05:47:01.998Z,77.79
2023-02-09T05:47:33.913Z,77.86
2023-02-09T05:48:05.589Z,77.30
2023-02-09T05:48:37.197Z,77.70
2023-02-09T05:49:08.818Z,77.69
2023-02-09T05:49:40.670Z,77.61
2023-02-09T05:50:12.271Z,77.31
2023-02-09T05:50:44.077Z,77.29
2023-02-09T05:51:15.834Z,77.73
2023-02-09T05:51:47.428Z,77.70
2023-02-09T05:52:20.114Z,78.10
2023-02-09T05:52:52.926Z,78.06
2023-02-09T05:53:24.593Z,78.34
2023-02-09T05:53:56.527Z,78.06
2023-02-09T05:54:28.227Z,77.82
2023-02-09T05:54:59.831Z,78.20
2023-02-09T05:55:31.435Z,78.25
2023-02-09T05:56:03.089Z,78.14
2023-02-09T05:56:35.602Z,78.46
2023-02-09T05:57:07.293Z,78.47
2023-02-09T05:57:38.921Z,78.17
2023-02-09T05:58:10.563Z,77.96
2023-02-09T05:58:42.136Z,78.18
2023-02-09T05:59:13.763Z,78.13
2023-02-09T05:59:45.428Z,77.82
2023-02-09T06:00:17.181Z,78.33
2023-02-09T06:00:48.784Z,78.35
2023-02-09T06:01:20.453Z,78.15
2023-02-09T06:01:52.081Z,78.11
2023-02-09T06:02:23.785Z,78.48
2023-02-09T06:02:56.151Z,78.27
2023-02-09T06:03:27.907Z,78.50
2023-02-09T06:03:59.583Z,78.74
2023-02-09T06:04:31.430Z,78.94
2023-02-09T06:05:03.080Z,79.21
2023-02-09T06:05:34.856Z,79.44
2023-02-09T06:06:06.757Z,79.44
2023-02-09T06:06:38.348Z,79.77
2023-02-09T06:07:11.982Z,79.61
2023-02-09T06:07:46.478Z,79.77
2023-02-09T06:08:18.066Z,79.86
2023-02-09T06:08:49.653Z,79.73
2023-02-09T06:09:21.429Z,79.39
2023-02-09T06:09:53.015Z,78.83
2023-02-09T06:10:24.686Z,79.32
2023-02-09T06:10:56.307Z,79.73
2023-02-09T06:11:27.900Z,79.80
2023-02-09T06:11:59.607Z,80.04
2023-02-09T06:12:31.181Z,80.00
2023-02-09T06:13:02.934Z,80.02
2023-02-09T06:13:34.470Z,80.24
2023-02-09T06:14:06.219Z,80.14
2023-02-09T06:14:37.947Z,80.06
2023-02-09T06:15:10.621Z,80.07
2023-02-09T06:15:42.375Z,80.27
2023-02-09T06:16:13.919Z,80.45
2023-02-09T06:16:45.769Z,80.17
2023-02-09T06:17:17.581Z,80.49
2023-02-09T06:17:49.154Z,79.73
2023-02-09T06:18:20.732Z,79.63
2023-02-09T06:18:52.279Z,79.77
2023-02-09T06:19:24.139Z,80.02
2023-02-09T06:19:55.691Z,79.82
2023-02-09T06:20:27.568Z,80.04
2023-02-09T06:20:59.207Z,80.18
2023-02-09T06:21:30.850Z,80.08
2023-02-09T06:22:02.516Z,80.20
2023-02-09T06:22:34.176Z,80.33
2023-02-09T06:23:05.753Z,80.74
2023-02-09T06:23:37.958Z,80.58
2023-02-09T06:24:09.735Z,80.39
2023-02-09T06:24:41.339Z,80.64
2023-02-09T06:25:12.939Z,81.46
2023-02-09T06:25:44.529Z,81.03
2023-02-09T06:26:17.456Z,81.26
2023-02-09T06:26:49.163Z,81.03
2023-02-09T06:27:20.862Z,81.09
2023-02-09T06:27:52.413Z,81.21
2023-02-09T06:28:24.155Z,80.93
2023-02-09T06:28:55.730Z,81.35
2023-02-09T06:29:27.398Z,81.39
2023-02-09T06:29:58.985Z,81.39
2023-02-09T06:30:32.791Z,81.88
2023-02-09T06:31:05.646Z,81.38
2023-02-09T06:31:38.301Z,81.21
2023-02-09T06:32:10.013Z,81.66
2023-02-09T06:32:41.717Z,81.46
2023-02-09T06:33:13.351Z,81.63
2023-02-09T06:33:45.378Z,81.33
2023-02-09T06:34:16.922Z,81.56
2023-02-09T06:34:48.878Z,81.87
2023-02-09T06:35:20.458Z,82.53
2023-02-09T06:35:52.510Z,82.43
2023-02-09T06:36:24.212Z,82.12
2023-02-09T06:36:55.743Z,82.22
2023-02-09T06:37:27.426Z,81.84
2023-02-09T06:37:59.482Z,82.38
2023-02-09T06:38:32.308Z,82.34
2023-02-09T06:39:07.950Z,82.32
2023-02-09T06:39:39.517Z,82.30
2023-02-09T06:40:11.488Z,82.70
2023-02-09T06:40:43.329Z,82.42
2023-02-09T06:41:15.088Z,82.57
2023-02-09T06:41:46.738Z,82.38
2023-02-09T06:42:18.280Z,82.29
2023-02-09T06:42:49.810Z,82.02
2023-02-09T06:43:21.574Z,82.05
2023-02-09T06:43:53.132Z,81.87
2023-02-09T06:44:24.735Z,81.54
2023-02-09T06:44:59.479Z,81.57
2023-02-09T06:45:31.077Z,81.62
2023-02-09T06:46:10.183Z,80.98
2023-02-09T06:46:41.795Z,81.47
2023-02-09T06:47:13.351Z,81.57
2023-02-09T06:47:46.301Z,81.60
2023-02-09T06:48:17.850Z,81.66
2023-02-09T06:48:49.557Z,81.43
2023-02-09T06:49:23.964Z,81.27
2023-02-09T06:49:55.695Z,81.43
2023-02-09T06:50:27.543Z,81.21
2023-02-09T06:50:59.371Z,81.52
2023-02-09T06:51:31.234Z,81.44
2023-02-09T06:52:03.365Z,81.12
2023-02-09T06:52:34.967Z,81.25
2023-02-09T06:53:06.525Z,81.35
2023-02-09T06:53:39.169Z,81.18
2023-02-09T06:54:10.736Z,81.70
2023-02-09T06:54:44.283Z,81.36
2023-02-09T06:55:16.742Z,81.88
2023-02-09T06:55:48.262Z,81.48
2023-02-09T06:56:20.333Z,81.68
2023-02-09T06:56:51.935Z,81.64
2023-02-09T06:57:23.458Z,81.22
2023-02-09T06:57:55.665Z,81.68
2023-02-09T06:58:27.698Z,81.43
2023-02-09T06:58:59.253Z,82.05
2023-02-09T06:59:30.788Z,81.71
2023-02-09T07:00:07.354Z,81.68
2023-02-09T07:00:39.016Z,82.51
2023-02-09T07:01:13.110Z,82.34
2023-02-09T07:01:44.812Z,82.35
2023-02-09T07:02:16.414Z,82.35
2023-02-09T07:02:48.035Z,82.47
2023-02-09T07:03:19.823Z,82.34
2023-02-09T07:03:51.382Z,82.36
2023-02-09T07:04:23.186Z,82.45
2023-02-09T07:04:54.782Z,82.34
2023-02-09T07:05:26.456Z,82.61
2023-02-09T07:06:12.218Z,82.75
2023-02-09T07:06:44.136Z,82.78
2023-02-09T07:07:15.935Z,83.21
2023-02-09T07:07:47.661Z,83.15
2023-02-09T07:08:19.260Z,83.25
2023-02-09T07:08:50.928Z,83.18
2023-02-09T07:09:22.499Z,83.10
2023-02-09T07:09:54.138Z,83.41
2023-02-09T07:10:25.870Z,83.19
2023-02-09T07:10:57.526Z,83.00
2023-02-09T07:11:30.471Z,83.35
2023-02-09T07:12:02.075Z,83.06
2023-02-09T07:12:34.233Z,83.47
2023-02-09T07:13:05.803Z,83.02
2023-02-09T07:13:37.787Z,83.19
2023-02-09T07:14:09.379Z,82.65
2023-02-09T07:14:40.894Z,82.73
2023-02-09T07:15:13.544Z,82.80
2023-02-09T07:15:45.267Z,82.70
2023-02-09T07:16:16.957Z,82.44
2023-02-09T07:16:48.548Z,83.04
2023-02-09T07:17:20.476Z,82.45
2023-02-09T07:17:52.243Z,82.25
2023-02-09T07:18:24.306Z,82.86